sensor_id;sensor_type;location;lat;lon;timestamp;pressure;altitude;pressure_sealevel;temperature;humidity
62779;BME280;48821;48.796;2.396;2023-03-04T00:00:47;102472.06;;;5.35;56.93
62779;BME280;48821;48.796;2.396;2023-03-04T00:01:59;102473.81;;;5.36;56.87
62779;BME280;48821;48.796;2.396;2023-03-04T00:03:11;102467.75;;;5.36;56.82
62779;BME280;48821;48.796;2.396;2023-03-04T00:04:25;102475.59;;;5.37;57.18
62779;BME280;48821;48.796;2.396;2023-03-04T00:05:37;102472.09;;;5.38;57.08
62779;BME280;48821;48.796;2.396;2023-03-04T00:06:49;102478.19;;;5.37;57.52
62779;BME280;48821;48.796;2.396;2023-03-04T00:08:00;102480.78;;;5.36;57.50
62779;BME280;48821;48.796;2.396;2023-03-04T00:09:12;102479.00;;;5.33;57.51
62779;BME280;48821;48.796;2.396;2023-03-04T00:10:24;102485.88;;;5.31;57.26
62779;BME280;48821;48.796;2.396;2023-03-04T00:11:36;102478.06;;;5.31;57.41
62779;BME280;48821;48.796;2.396;2023-03-04T00:12:48;102479.81;;;5.31;57.17
62779;BME280;48821;48.796;2.396;2023-03-04T00:14:00;102478.06;;;5.29;57.32
62779;BME280;48821;48.796;2.396;2023-03-04T00:15:12;102473.72;;;5.30;57.27
62779;BME280;48821;48.796;2.396;2023-03-04T00:16:24;102477.16;;;5.29;57.50
62779;BME280;48821;48.796;2.396;2023-03-04T00:17:39;102476.28;;;5.28;57.44
62779;BME280;48821;48.796;2.396;2023-03-04T00:18:54;102473.69;;;5.28;57.26
62779;BME280;48821;48.796;2.396;2023-03-04T00:20:06;102472.84;;;5.29;57.49
62779;BME280;48821;48.796;2.396;2023-03-04T00:21:18;102480.66;;;5.28;57.35
62779;BME280;48821;48.796;2.396;2023-03-04T00:22:30;102478.88;;;5.28;57.64
62779;BME280;48821;48.796;2.396;2023-03-04T00:23:42;102484.09;;;5.27;57.57
62779;BME280;48821;48.796;2.396;2023-03-04T00:24:54;102478.88;;;5.27;57.22
62779;BME280;48821;48.796;2.396;2023-03-04T00:26:06;102476.28;;;5.27;57.15
62779;BME280;48821;48.796;2.396;2023-03-04T00:27:19;102473.66;;;5.27;57.75
62779;BME280;48821;48.796;2.396;2023-03-04T00:28:30;102484.09;;;5.27;57.14
62779;BME280;48821;48.796;2.396;2023-03-04T00:29:42;102484.09;;;5.28;57.94
62779;BME280;48821;48.796;2.396;2023-03-04T00:30:54;102481.53;;;5.30;57.38
62779;BME280;48821;48.796;2.396;2023-03-04T00:32:06;102480.66;;;5.28;57.74
62779;BME280;48821;48.796;2.396;2023-03-04T00:33:18;102487.56;;;5.26;57.87
62779;BME280;48821;48.796;2.396;2023-03-04T00:34:30;102489.28;;;5.25;57.61
62779;BME280;48821;48.796;2.396;2023-03-04T00:35:42;102483.19;;;5.23;57.61
62779;BME280;48821;48.796;2.396;2023-03-04T00:36:54;102486.63;;;5.24;57.28
62779;BME280;48821;48.796;2.396;2023-03-04T00:38:11;102484.91;;;5.23;57.46
62779;BME280;48821;48.796;2.396;2023-03-04T00:39:22;102481.41;;;5.22;58.06
62779;BME280;48821;48.796;2.396;2023-03-04T00:40:35;102484.84;;;5.21;58.16
62779;BME280;48821;48.796;2.396;2023-03-04T00:41:47;102480.47;;;5.18;57.56
62779;BME280;48821;48.796;2.396;2023-03-04T00:42:59;102490.03;;;5.20;57.53
62779;BME280;48821;48.796;2.396;2023-03-04T00:44:11;102485.66;;;5.18;57.68
62779;BME280;48821;48.796;2.396;2023-03-04T00:45:23;102490.03;;;5.18;57.52
62779;BME280;48821;48.796;2.396;2023-03-04T00:46:35;102490.03;;;5.18;57.31
62779;BME280;48821;48.796;2.396;2023-03-04T00:47:47;102490.88;;;5.18;57.65
62779;BME280;48821;48.796;2.396;2023-03-04T00:48:58;102489.13;;;5.16;58.00
62779;BME280;48821;48.796;2.396;2023-03-04T00:50:09;102490.84;;;5.15;57.82
62779;BME280;48821;48.796;2.396;2023-03-04T00:51:21;102493.47;;;5.15;57.82
62779;BME280;48821;48.796;2.396;2023-03-04T00:52:32;102495.19;;;5.15;57.70
62779;BME280;48821;48.796;2.396;2023-03-04T00:53:44;102496.91;;;5.14;57.85
62779;BME280;48821;48.796;2.396;2023-03-04T00:54:56;102494.28;;;5.14;57.83
62779;BME280;48821;48.796;2.396;2023-03-04T00:56:08;102496.91;;;5.14;57.64
62779;BME280;48821;48.796;2.396;2023-03-04T00:57:21;102500.41;;;5.15;57.77
62779;BME280;48821;48.796;2.396;2023-03-04T00:58:33;102494.28;;;5.14;58.04
62779;BME280;48821;48.796;2.396;2023-03-04T00:59:44;102502.97;;;5.13;57.55
62779;BME280;48821;48.796;2.396;2023-03-04T01:00:56;102496.03;;;5.14;58.05
62779;BME280;48821;48.796;2.396;2023-03-04T01:02:09;102509.88;;;5.11;58.58
62779;BME280;48821;48.796;2.396;2023-03-04T01:03:21;102506.38;;;5.09;58.20
62779;BME280;48821;48.796;2.396;2023-03-04T01:04:33;102501.13;;;5.07;58.14
62779;BME280;48821;48.796;2.396;2023-03-04T01:05:45;102504.56;;;5.05;58.32
62779;BME280;48821;48.796;2.396;2023-03-04T01:06:59;102504.53;;;5.03;58.10
62779;BME280;48821;48.796;2.396;2023-03-04T01:08:10;102511.47;;;5.03;58.26
62779;BME280;48821;48.796;2.396;2023-03-04T01:09:22;102507.97;;;5.01;58.53
62779;BME280;48821;48.796;2.396;2023-03-04T01:10:34;102500.97;;;5.00;58.38
62779;BME280;48821;48.796;2.396;2023-03-04T01:11:46;102504.47;;;4.99;58.56
62779;BME280;48821;48.796;2.396;2023-03-04T01:12:58;102502.69;;;4.99;58.46
62779;BME280;48821;48.796;2.396;2023-03-04T01:14:10;102495.78;;;5.00;58.20
62779;BME280;48821;48.796;2.396;2023-03-04T01:15:22;102501.88;;;5.02;58.26
62779;BME280;48821;48.796;2.396;2023-03-04T01:16:34;102499.28;;;5.02;58.01
62779;BME280;48821;48.796;2.396;2023-03-04T01:17:46;102501.06;;;5.03;58.10
62779;BME280;48821;48.796;2.396;2023-03-04T01:18:58;102503.66;;;5.03;58.75
62779;BME280;48821;48.796;2.396;2023-03-04T01:20:11;102502.78;;;5.04;58.48
62779;BME280;48821;48.796;2.396;2023-03-04T01:21:22;102505.44;;;5.05;58.52
62779;BME280;48821;48.796;2.396;2023-03-04T01:22:35;102501.13;;;5.06;58.50
62779;BME280;48821;48.796;2.396;2023-03-04T01:23:46;102500.22;;;5.05;58.07
62779;BME280;48821;48.796;2.396;2023-03-04T01:24:59;102507.16;;;5.05;58.32
62779;BME280;48821;48.796;2.396;2023-03-04T01:26:13;102502.78;;;5.04;58.40
62779;BME280;48821;48.796;2.396;2023-03-04T01:27:24;102506.25;;;5.03;58.18
62779;BME280;48821;48.796;2.396;2023-03-04T01:28:35;102490.56;;;5.01;58.25
62779;BME280;48821;48.796;2.396;2023-03-04T01:29:47;102498.38;;;5.00;58.21
62779;BME280;48821;48.796;2.396;2023-03-04T01:31:01;102496.63;;;4.99;58.23
62779;BME280;48821;48.796;2.396;2023-03-04T01:32:13;102487.88;;;4.97;58.58
62779;BME280;48821;48.796;2.396;2023-03-04T01:33:25;102493.09;;;4.97;58.42
62779;BME280;48821;48.796;2.396;2023-03-04T01:34:37;102498.34;;;4.98;58.32
62779;BME280;48821;48.796;2.396;2023-03-04T01:35:49;102489.63;;;4.96;58.13
62779;BME280;48821;48.796;2.396;2023-03-04T01:37:01;102492.25;;;4.98;58.24
62779;BME280;48821;48.796;2.396;2023-03-04T01:38:13;102492.25;;;4.98;58.68
62779;BME280;48821;48.796;2.396;2023-03-04T01:39:25;102487.88;;;4.97;58.25
62779;BME280;48821;48.796;2.396;2023-03-04T01:40:37;102496.56;;;4.95;58.66
62779;BME280;48821;48.796;2.396;2023-03-04T01:41:49;102489.59;;;4.94;58.68
62779;BME280;48821;48.796;2.396;2023-03-04T01:43:01;102486.09;;;4.92;58.38
62779;BME280;48821;48.796;2.396;2023-03-04T01:44:13;102482.63;;;4.93;58.84
62779;BME280;48821;48.796;2.396;2023-03-04T01:45:25;102489.56;;;4.93;58.65
62779;BME280;48821;48.796;2.396;2023-03-04T01:46:37;102481.75;;;4.93;58.38
62779;BME280;48821;48.796;2.396;2023-03-04T01:47:51;102484.34;;;4.91;58.65
62779;BME280;48821;48.796;2.396;2023-03-04T01:49:05;102484.28;;;4.90;58.13
62779;BME280;48821;48.796;2.396;2023-03-04T01:50:23;102476.47;;;4.88;58.71
62779;BME280;48821;48.796;2.396;2023-03-04T01:51:37;102488.63;;;4.89;58.88
62779;BME280;48821;48.796;2.396;2023-03-04T01:52:49;102484.28;;;4.88;59.16
62779;BME280;48821;48.796;2.396;2023-03-04T01:54:01;102476.47;;;4.88;58.71
62779;BME280;48821;48.796;2.396;2023-03-04T01:55:18;102482.56;;;4.89;58.23
62779;BME280;48821;48.796;2.396;2023-03-04T01:56:35;102483.41;;;4.89;58.37
62779;BME280;48821;48.796;2.396;2023-03-04T01:57:49;102478.19;;;4.89;58.59
62779;BME280;48821;48.796;2.396;2023-03-04T02:00:22;102472.16;;;4.90;58.44
62779;BME280;48821;48.796;2.396;2023-03-04T02:01:34;102480.84;;;4.91;59.03
62779;BME280;48821;48.796;2.396;2023-03-04T02:02:49;102483.47;;;4.92;58.58
62779;BME280;48821;48.796;2.396;2023-03-04T02:04:02;102471.31;;;4.91;58.82
62779;BME280;48821;48.796;2.396;2023-03-04T02:05:14;102472.13;;;4.89;58.70
62779;BME280;48821;48.796;2.396;2023-03-04T02:06:26;102471.25;;;4.88;58.77
62779;BME280;48821;48.796;2.396;2023-03-04T02:07:38;102468.63;;;4.88;58.87
62779;BME280;48821;48.796;2.396;2023-03-04T02:08:50;102474.69;;;4.87;58.85
62779;BME280;48821;48.796;2.396;2023-03-04T02:10:02;102469.41;;;4.84;58.71
62779;BME280;48821;48.796;2.396;2023-03-04T02:11:14;102472.00;;;4.84;59.04
62779;BME280;48821;48.796;2.396;2023-03-04T02:12:25;102468.50;;;4.82;58.62
62779;BME280;48821;48.796;2.396;2023-03-04T02:13:36;102470.25;;;4.81;58.85
62779;BME280;48821;48.796;2.396;2023-03-04T02:14:48;102465.00;;;4.80;59.13
62779;BME280;48821;48.796;2.396;2023-03-04T02:16:02;102469.31;;;4.79;58.88
62779;BME280;48821;48.796;2.396;2023-03-04T02:17:14;102462.38;;;4.80;58.89
62779;BME280;48821;48.796;2.396;2023-03-04T02:18:25;102472.81;;;4.80;59.08
62779;BME280;48821;48.796;2.396;2023-03-04T02:20:25;102469.38;;;4.81;58.78
62779;BME280;48821;48.796;2.396;2023-03-04T02:21:29;102471.06;;;4.79;58.65
62779;BME280;48821;48.796;2.396;2023-03-04T02:22:50;102470.19;;;4.78;59.36
62779;BME280;48821;48.796;2.396;2023-03-04T02:24:35;102470.13;;;4.75;59.14
62779;BME280;48821;48.796;2.396;2023-03-04T02:26:08;102469.25;;;4.75;59.02
62779;BME280;48821;48.796;2.396;2023-03-04T02:27:21;102464.84;;;4.72;58.80
62779;BME280;48821;48.796;2.396;2023-03-04T02:28:33;102467.44;;;4.70;59.21
62779;BME280;48821;48.796;2.396;2023-03-04T02:29:45;102473.44;;;4.68;59.45
62779;BME280;48821;48.796;2.396;2023-03-04T02:30:57;102465.63;;;4.66;58.97
62779;BME280;48821;48.796;2.396;2023-03-04T02:32:11;102472.53;;;4.64;59.34
62779;BME280;48821;48.796;2.396;2023-03-04T02:33:23;102465.56;;;4.63;59.32
62779;BME280;48821;48.796;2.396;2023-03-04T02:34:35;102471.66;;;4.64;59.32
62779;BME280;48821;48.796;2.396;2023-03-04T02:35:47;102465.56;;;4.63;59.53
62779;BME280;48821;48.796;2.396;2023-03-04T02:37:00;102458.56;;;4.62;59.05
62779;BME280;48821;48.796;2.396;2023-03-04T02:38:12;102464.66;;;4.63;58.93
62779;BME280;48821;48.796;2.396;2023-03-04T02:39:34;102462.94;;;4.63;59.71
62779;BME280;48821;48.796;2.396;2023-03-04T02:40:48;102463.84;;;4.64;59.42
62779;BME280;48821;48.796;2.396;2023-03-04T02:42:02;102455.97;;;4.62;59.38
62779;BME280;48821;48.796;2.396;2023-03-04T02:43:14;102457.72;;;4.63;59.41
62779;BME280;48821;48.796;2.396;2023-03-04T02:44:30;102456.84;;;4.61;59.59
62779;BME280;48821;48.796;2.396;2023-03-04T02:45:49;102455.94;;;4.60;59.42
62779;BME280;48821;48.796;2.396;2023-03-04T02:47:03;102455.06;;;4.60;59.16
62779;BME280;48821;48.796;2.396;2023-03-04T02:48:17;102462.88;;;4.60;59.46
62779;BME280;48821;48.796;2.396;2023-03-04T02:49:31;102462.00;;;4.59;59.66
62779;BME280;48821;48.796;2.396;2023-03-04T02:50:46;102461.16;;;4.60;59.27
62779;BME280;48821;48.796;2.396;2023-03-04T02:52:09;102459.47;;;4.63;59.34
62779;BME280;48821;48.796;2.396;2023-03-04T02:53:21;102460.34;;;4.63;59.10
62779;BME280;48821;48.796;2.396;2023-03-04T02:54:33;102451.69;;;4.64;59.57
62779;BME280;48821;48.796;2.396;2023-03-04T02:55:45;102453.44;;;4.65;59.55
62779;BME280;48821;48.796;2.396;2023-03-04T02:57:02;102452.59;;;4.66;59.13
62779;BME280;48821;48.796;2.396;2023-03-04T02:58:14;102456.06;;;4.67;59.58
62779;BME280;48821;48.796;2.396;2023-03-04T02:59:26;102451.72;;;4.66;59.10
62779;BME280;48821;48.796;2.396;2023-03-04T03:00:38;102443.88;;;4.64;59.50
62779;BME280;48821;48.796;2.396;2023-03-04T03:01:50;102455.13;;;4.63;59.57
62779;BME280;48821;48.796;2.396;2023-03-04T03:03:02;102444.72;;;4.63;59.08
62779;BME280;48821;48.796;2.396;2023-03-04T03:04:14;102454.28;;;4.64;59.48
62779;BME280;48821;48.796;2.396;2023-03-04T03:05:29;102456.91;;;4.64;59.11
62779;BME280;48821;48.796;2.396;2023-03-04T03:06:41;102449.09;;;4.64;59.21
62779;BME280;48821;48.796;2.396;2023-03-04T03:07:52;102452.53;;;4.63;59.53
62779;BME280;48821;48.796;2.396;2023-03-04T03:09:04;102437.78;;;4.64;59.06
62779;BME280;48821;48.796;2.396;2023-03-04T03:10:16;102448.22;;;4.65;59.22
62779;BME280;48821;48.796;2.396;2023-03-04T03:11:28;102443.03;;;4.67;59.34
62779;BME280;48821;48.796;2.396;2023-03-04T03:12:40;102446.53;;;4.67;59.79
62779;BME280;48821;48.796;2.396;2023-03-04T03:13:52;102435.19;;;4.65;59.25
62779;BME280;48821;48.796;2.396;2023-03-04T03:15:05;102447.38;;;4.66;59.14
62779;BME280;48821;48.796;2.396;2023-03-04T03:16:17;102444.78;;;4.66;59.39
62779;BME280;48821;48.796;2.396;2023-03-04T03:17:28;102438.69;;;4.66;59.46
62779;BME280;48821;48.796;2.396;2023-03-04T03:18:40;102445.63;;;4.65;59.60
62779;BME280;48821;48.796;2.396;2023-03-04T03:19:52;102439.50;;;4.63;59.21
62779;BME280;48821;48.796;2.396;2023-03-04T03:21:04;102443.81;;;4.63;59.52
62779;BME280;48821;48.796;2.396;2023-03-04T03:22:16;102436.00;;;4.61;59.36
62779;BME280;48821;48.796;2.396;2023-03-04T03:23:27;102438.59;;;4.61;59.94
62779;BME280;48821;48.796;2.396;2023-03-04T03:24:39;102439.41;;;4.58;60.16
62779;BME280;48821;48.796;2.396;2023-03-04T03:25:51;102445.47;;;4.57;59.88
62779;BME280;48821;48.796;2.396;2023-03-04T03:27:03;102440.25;;;4.57;59.27
62779;BME280;48821;48.796;2.396;2023-03-04T03:28:15;102444.56;;;4.57;59.75
62779;BME280;48821;48.796;2.396;2023-03-04T03:29:27;102435.94;;;4.58;59.75
62779;BME280;48821;48.796;2.396;2023-03-04T03:30:39;102438.56;;;4.59;59.79
62779;BME280;48821;48.796;2.396;2023-03-04T03:31:51;102442.03;;;4.60;59.38
62779;BME280;48821;48.796;2.396;2023-03-04T03:33:02;102441.22;;;4.61;59.69
62779;BME280;48821;48.796;2.396;2023-03-04T03:34:14;102440.31;;;4.60;59.51
62779;BME280;48821;48.796;2.396;2023-03-04T03:35:26;102441.22;;;4.61;59.80
62779;BME280;48821;48.796;2.396;2023-03-04T03:36:37;102434.22;;;4.60;59.56
62779;BME280;48821;48.796;2.396;2023-03-04T03:37:49;102436.00;;;4.61;59.81
62779;BME280;48821;48.796;2.396;2023-03-04T03:39:01;102441.22;;;4.61;59.98
62779;BME280;48821;48.796;2.396;2023-03-04T03:40:13;102437.72;;;4.60;59.26
62779;BME280;48821;48.796;2.396;2023-03-04T03:41:25;102435.94;;;4.58;59.86
62779;BME280;48821;48.796;2.396;2023-03-04T03:42:37;102435.03;;;4.56;60.12
62779;BME280;48821;48.796;2.396;2023-03-04T03:43:48;102432.41;;;4.54;59.77
62779;BME280;48821;48.796;2.396;2023-03-04T03:45:01;102435.00;;;4.54;59.64
62779;BME280;48821;48.796;2.396;2023-03-04T03:46:13;102435.84;;;4.55;59.81
62779;BME280;48821;48.796;2.396;2023-03-04T03:47:24;102435.84;;;4.55;59.84
62779;BME280;48821;48.796;2.396;2023-03-04T03:48:36;102438.47;;;4.55;59.78
62779;BME280;48821;48.796;2.396;2023-03-04T03:49:47;102435.84;;;4.55;59.83
62779;BME280;48821;48.796;2.396;2023-03-04T03:51:00;102441.94;;;4.55;59.40
62779;BME280;48821;48.796;2.396;2023-03-04T03:52:12;102435.84;;;4.55;60.19
62779;BME280;48821;48.796;2.396;2023-03-04T03:53:24;102441.06;;;4.55;59.70
62779;BME280;48821;48.796;2.396;2023-03-04T03:54:37;102440.16;;;4.53;59.57
62779;BME280;48821;48.796;2.396;2023-03-04T03:55:49;102441.03;;;4.52;59.77
62779;BME280;48821;48.796;2.396;2023-03-04T03:57:01;102445.34;;;4.51;59.55
62779;BME280;48821;48.796;2.396;2023-03-04T03:58:13;102448.78;;;4.50;59.52
62779;BME280;48821;48.796;2.396;2023-03-04T03:59:25;102447.91;;;4.49;59.81
62779;BME280;48821;48.796;2.396;2023-03-04T04:00:37;102453.09;;;4.48;59.92
62779;BME280;48821;48.796;2.396;2023-03-04T04:01:50;102453.06;;;4.46;59.38
62779;BME280;48821;48.796;2.396;2023-03-04T04:03:02;102446.97;;;4.46;59.72
62779;BME280;48821;48.796;2.396;2023-03-04T04:04:14;102449.56;;;4.44;59.79
62779;BME280;48821;48.796;2.396;2023-03-04T04:05:26;102451.22;;;4.42;59.78
62779;BME280;48821;48.796;2.396;2023-03-04T04:06:38;102451.22;;;4.42;59.71
62779;BME280;48821;48.796;2.396;2023-03-04T04:07:49;102455.59;;;4.42;59.90
62779;BME280;48821;48.796;2.396;2023-03-04T04:09:01;102449.50;;;4.41;60.02
62779;BME280;48821;48.796;2.396;2023-03-04T04:10:13;102455.59;;;4.42;59.80
62779;BME280;48821;48.796;2.396;2023-03-04T04:11:24;102461.63;;;4.41;59.65
62779;BME280;48821;48.796;2.396;2023-03-04T04:12:36;102455.53;;;4.40;60.25
62779;BME280;48821;48.796;2.396;2023-03-04T04:13:48;102461.63;;;4.41;59.91
62779;BME280;48821;48.796;2.396;2023-03-04T04:15:00;102455.53;;;4.40;60.63
62779;BME280;48821;48.796;2.396;2023-03-04T04:16:12;102451.19;;;4.39;59.82
62779;BME280;48821;48.796;2.396;2023-03-04T04:17:23;102459.84;;;4.38;59.91
62779;BME280;48821;48.796;2.396;2023-03-04T04:18:35;102455.53;;;4.40;59.73
62779;BME280;48821;48.796;2.396;2023-03-04T04:19:47;102455.59;;;4.42;60.26
62779;BME280;48821;48.796;2.396;2023-03-04T04:20:59;102460.81;;;4.43;60.00
62779;BME280;48821;48.796;2.396;2023-03-04T04:22:14;102455.59;;;4.42;59.80
62779;BME280;48821;48.796;2.396;2023-03-04T04:23:26;102464.22;;;4.41;60.15
62779;BME280;48821;48.796;2.396;2023-03-04T04:24:37;102452.03;;;4.38;60.31
62779;BME280;48821;48.796;2.396;2023-03-04T04:25:54;102457.22;;;4.38;59.64
62779;BME280;48821;48.796;2.396;2023-03-04T04:27:05;102452.88;;;4.37;59.94
62779;BME280;48821;48.796;2.396;2023-03-04T04:28:17;102453.72;;;4.36;59.87
62779;BME280;48821;48.796;2.396;2023-03-04T04:29:31;102455.50;;;4.37;60.20
62779;BME280;48821;48.796;2.396;2023-03-04T04:30:43;102453.72;;;4.36;60.20
62779;BME280;48821;48.796;2.396;2023-03-04T04:31:55;102456.31;;;4.36;59.90
62779;BME280;48821;48.796;2.396;2023-03-04T04:33:08;102458.94;;;4.36;59.66
62779;BME280;48821;48.796;2.396;2023-03-04T04:34:19;102458.91;;;4.34;59.70
62779;BME280;48821;48.796;2.396;2023-03-04T04:35:32;102463.25;;;4.35;60.05
62779;BME280;48821;48.796;2.396;2023-03-04T04:36:45;102461.53;;;4.36;59.65
62779;BME280;48821;48.796;2.396;2023-03-04T04:37:57;102462.38;;;4.35;59.77
62779;BME280;48821;48.796;2.396;2023-03-04T04:39:09;102456.31;;;4.36;59.59
62779;BME280;48821;48.796;2.396;2023-03-04T04:40:21;102461.50;;;4.34;59.81
62779;BME280;48821;48.796;2.396;2023-03-04T04:41:39;102464.13;;;4.34;59.92
62779;BME280;48821;48.796;2.396;2023-03-04T04:42:51;102461.47;;;4.33;59.96
62779;BME280;48821;48.796;2.396;2023-03-04T04:44:03;102464.03;;;4.30;59.94
62779;BME280;48821;48.796;2.396;2023-03-04T04:45:15;102463.09;;;4.27;60.18
62779;BME280;48821;48.796;2.396;2023-03-04T04:46:27;102457.84;;;4.26;59.71
62779;BME280;48821;48.796;2.396;2023-03-04T04:47:40;102463.06;;;4.26;59.99
62779;BME280;48821;48.796;2.396;2023-03-04T04:48:52;102464.78;;;4.25;59.91
62779;BME280;48821;48.796;2.396;2023-03-04T04:50:06;102462.09;;;4.22;60.08
62779;BME280;48821;48.796;2.396;2023-03-04T04:51:18;102466.41;;;4.20;59.98
62779;BME280;48821;48.796;2.396;2023-03-04T04:52:30;102462.88;;;4.16;59.90
62779;BME280;48821;48.796;2.396;2023-03-04T04:53:42;102460.25;;;4.16;59.91
62779;BME280;48821;48.796;2.396;2023-03-04T04:54:54;102461.09;;;4.15;60.12
62779;BME280;48821;48.796;2.396;2023-03-04T04:56:15;102465.41;;;4.15;59.76
62779;BME280;48821;48.796;2.396;2023-03-04T04:57:26;102471.50;;;4.14;60.17
62779;BME280;48821;48.796;2.396;2023-03-04T04:58:38;102476.69;;;4.14;59.86
62779;BME280;48821;48.796;2.396;2023-03-04T04:59:50;102476.69;;;4.14;60.22
62779;BME280;48821;48.796;2.396;2023-03-04T05:01:02;102481.91;;;4.14;60.26
62779;BME280;48821;48.796;2.396;2023-03-04T05:02:15;102475.78;;;4.12;60.39
62779;BME280;48821;48.796;2.396;2023-03-04T05:03:27;102487.03;;;4.11;59.89
62779;BME280;48821;48.796;2.396;2023-03-04T05:04:38;102481.81;;;4.11;59.87
62779;BME280;48821;48.796;2.396;2023-03-04T05:05:50;102480.09;;;4.10;60.23
62779;BME280;48821;48.796;2.396;2023-03-04T05:07:01;102479.19;;;4.09;59.71
62779;BME280;48821;48.796;2.396;2023-03-04T05:08:13;102478.31;;;4.09;59.84
62779;BME280;48821;48.796;2.396;2023-03-04T05:09:25;102480.91;;;4.09;60.26
62779;BME280;48821;48.796;2.396;2023-03-04T05:10:38;102480.91;;;4.09;60.33
62779;BME280;48821;48.796;2.396;2023-03-04T05:11:49;102480.03;;;4.08;60.07
62779;BME280;48821;48.796;2.396;2023-03-04T05:13:01;102481.69;;;4.04;60.24
62779;BME280;48821;48.796;2.396;2023-03-04T05:14:14;102489.44;;;4.03;59.59
62779;BME280;48821;48.796;2.396;2023-03-04T05:15:26;102484.22;;;4.01;60.19
62779;BME280;48821;48.796;2.396;2023-03-04T05:16:38;102484.22;;;4.01;59.71
62779;BME280;48821;48.796;2.396;2023-03-04T05:17:49;102482.44;;;4.00;60.45
62779;BME280;48821;48.796;2.396;2023-03-04T05:19:01;102486.78;;;4.00;60.29
62779;BME280;48821;48.796;2.396;2023-03-04T05:20:13;102491.94;;;3.98;59.92
62779;BME280;48821;48.796;2.396;2023-03-04T05:21:25;102485.84;;;3.98;60.06
62779;BME280;48821;48.796;2.396;2023-03-04T05:22:37;102491.94;;;3.98;60.12
62779;BME280;48821;48.796;2.396;2023-03-04T05:23:48;102491.06;;;3.98;59.59
62779;BME280;48821;48.796;2.396;2023-03-04T05:25:01;102485.84;;;3.96;60.21
62779;BME280;48821;48.796;2.396;2023-03-04T05:26:15;102485.81;;;3.94;59.78
62779;BME280;48821;48.796;2.396;2023-03-04T05:27:27;102490.13;;;3.94;59.94
62779;BME280;48821;48.796;2.396;2023-03-04T05:28:39;102492.75;;;3.96;60.36
62779;BME280;48821;48.796;2.396;2023-03-04T05:29:51;102493.63;;;3.94;60.44
62779;BME280;48821;48.796;2.396;2023-03-04T05:31:04;102492.72;;;3.94;60.54
62779;BME280;48821;48.796;2.396;2023-03-04T05:32:16;102497.09;;;3.95;60.06
62779;BME280;48821;48.796;2.396;2023-03-04T05:33:28;102497.03;;;3.93;60.36
62779;BME280;48821;48.796;2.396;2023-03-04T05:34:40;102491.84;;;3.93;60.50
62779;BME280;48821;48.796;2.396;2023-03-04T05:35:52;102499.66;;;3.93;59.92
62779;BME280;48821;48.796;2.396;2023-03-04T05:37:05;102495.34;;;3.94;60.06
62779;BME280;48821;48.796;2.396;2023-03-04T05:38:18;102491.84;;;3.93;60.03
62779;BME280;48821;48.796;2.396;2023-03-04T05:39:30;102496.22;;;3.94;59.78
62779;BME280;48821;48.796;2.396;2023-03-04T05:40:42;102493.63;;;3.96;60.42
62779;BME280;48821;48.796;2.396;2023-03-04T05:41:54;102493.63;;;3.96;59.69
62779;BME280;48821;48.796;2.396;2023-03-04T05:43:05;102497.16;;;3.98;59.58
62779;BME280;48821;48.796;2.396;2023-03-04T05:44:17;102497.22;;;4.00;59.70
62779;BME280;48821;48.796;2.396;2023-03-04T05:45:29;102498.94;;;4.01;59.65
62779;BME280;48821;48.796;2.396;2023-03-04T05:46:42;102496.34;;;4.01;59.81
62779;BME280;48821;48.796;2.396;2023-03-04T05:47:54;102498.94;;;4.01;59.86
62779;BME280;48821;48.796;2.396;2023-03-04T05:49:06;102498.06;;;4.00;59.96
62779;BME280;48821;48.796;2.396;2023-03-04T05:50:18;102494.63;;;4.01;59.84
62779;BME280;48821;48.796;2.396;2023-03-04T05:51:29;102500.66;;;4.00;60.18
62779;BME280;48821;48.796;2.396;2023-03-04T05:52:42;102492.84;;;4.00;59.73
62779;BME280;48821;48.796;2.396;2023-03-04T05:53:54;102501.56;;;4.01;59.47
62779;BME280;48821;48.796;2.396;2023-03-04T05:55:06;102499.84;;;4.01;59.76
62779;BME280;48821;48.796;2.396;2023-03-04T05:56:18;102501.59;;;4.02;59.47
62779;BME280;48821;48.796;2.396;2023-03-04T05:57:30;102495.50;;;4.02;59.70
62779;BME280;48821;48.796;2.396;2023-03-04T05:58:43;102500.75;;;4.03;59.47
62779;BME280;48821;48.796;2.396;2023-03-04T05:59:54;102500.75;;;4.03;59.99
62779;BME280;48821;48.796;2.396;2023-03-04T06:01:06;102500.75;;;4.03;59.35
62779;BME280;48821;48.796;2.396;2023-03-04T06:02:18;102505.13;;;4.04;59.50
62779;BME280;48821;48.796;2.396;2023-03-04T06:03:30;102502.50;;;4.04;59.22
62779;BME280;48821;48.796;2.396;2023-03-04T06:04:42;102501.63;;;4.04;59.39
62779;BME280;48821;48.796;2.396;2023-03-04T06:05:55;102506.84;;;4.04;59.66
62779;BME280;48821;48.796;2.396;2023-03-04T06:07:06;102506.84;;;4.04;59.40
62779;BME280;48821;48.796;2.396;2023-03-04T06:08:18;102510.25;;;4.03;59.73
62779;BME280;48821;48.796;2.396;2023-03-04T06:09:30;102511.97;;;4.01;59.53
62779;BME280;48821;48.796;2.396;2023-03-04T06:10:42;102511.97;;;4.01;59.75
62779;BME280;48821;48.796;2.396;2023-03-04T06:11:54;102511.06;;;4.00;59.22
62779;BME280;48821;48.796;2.396;2023-03-04T06:13:07;102507.63;;;4.00;59.18
62779;BME280;48821;48.796;2.396;2023-03-04T06:14:19;102518.94;;;4.02;59.36
62779;BME280;48821;48.796;2.396;2023-03-04T06:15:31;102512.00;;;4.02;59.53
62779;BME280;48821;48.796;2.396;2023-03-04T06:16:43;102512.03;;;4.04;59.21
62779;BME280;48821;48.796;2.396;2023-03-04T06:17:55;102515.53;;;4.04;59.64
62779;BME280;48821;48.796;2.396;2023-03-04T06:19:06;102511.22;;;4.07;59.34
62779;BME280;48821;48.796;2.396;2023-03-04T06:20:18;102512.94;;;4.06;59.44
62779;BME280;48821;48.796;2.396;2023-03-04T06:21:30;102514.75;;;4.09;59.08
62779;BME280;48821;48.796;2.396;2023-03-04T06:22:42;102518.22;;;4.09;59.15
62779;BME280;48821;48.796;2.396;2023-03-04T06:23:53;102509.63;;;4.12;59.38
62779;BME280;48821;48.796;2.396;2023-03-04T06:25:06;102518.34;;;4.14;59.31
62779;BME280;48821;48.796;2.396;2023-03-04T06:26:17;102522.69;;;4.15;58.82